EST,Max TemperatureF,Mean TemperatureF,Min TemperatureF,Max Dew PointF,MeanDew PointF,Min DewpointF,Max Humidity, Mean Humidity, Min Humidity, Max Sea Level PressureIn, Mean Sea Level PressureIn, Min Sea Level PressureIn, Max VisibilityMiles, Mean VisibilityMiles, Min VisibilityMiles, Max Wind SpeedMPH, Mean Wind SpeedMPH, Max Gust SpeedMPH,PrecipitationIn, CloudCover, Events, WindDirDegrees
2013-12-1,55,41,27,34,27,21,83,64,34,30.34,30.15,30.00,10,10,8,5,1,,0.00,0,,299
2013-12-2,57,44,32,36,32,29,89,64,37,29.97,29.87,29.80,10,10,9,7,1,,0.00,4,,320
2013-12-3,57,50,42,52,44,36,100,79,67,29.97,29.89,29.83,10,8,2,9,2,17,0.00,7,Rain,212
2013-12-4,55,53,51,55,53,50,100,95,93,30.07,30.00,29.92,4,1,0,4,0,,0.05,8,Fog-Rain,120
2013-12-5,66,60,57,64,60,56,100,95,88,30.10,30.04,29.96,10,3,0,14,3,22,0.23,8,Fog-Rain,199
2013-12-6,73,68,61,64,62,59,94,80,64,30.03,29.96,29.91,10,9,2,20,13,30,0.26,7,Rain,206
2013-12-7,60,51,42,58,46,33,96,78,61,30.40,30.19,29.95,10,10,6,12,5,18,0.10,8,Rain,51
2013-12-8,42,38,33,37,32,30,93,87,73,30.40,30.34,30.24,10,6,2,13,6,20,0.08,8,Rain,55
2013-12-9,42,38,33,41,36,30,100,93,87,30.24,30.12,30.03,10,5,0,4,0,,0.63,8,Fog-Rain,245
2013-12-10,51,42,30,46,38,18,100,86,41,30.28,30.00,29.90,10,5,0,14,1,25,0.31,6,Fog-Rain,320
2013-12-11,48,36,25,28,21,17,79,55,33,30.41,30.31,30.26,10,10,10,9,3,,0.00,0,,226
2013-12-12,45,38,28,18,13,5,61,41,19,30.38,30.32,30.26,10,10,10,7,4,,0.00,0,,336
2013-12-13,48,36,23,28,18,12,85,50,25,30.35,30.28,30.22,10,10,8,10,2,,0.00,0,,217
2013-12-14,39,38,37,37,34,27,100,88,63,30.22,29.98,29.77,10,5,1,9,4,,0.78,8,Rain,352
2013-12-15,48,40,32,38,32,23,100,79,42,30.07,29.85,29.72,10,5,0,13,3,21,0.00,2,,304
2013-12-16,59,44,28,31,27,24,82,58,30,30.13,30.08,30.04,10,10,10,9,2,,0.01,0,,224
2013-12-17,61,47,33,33,29,20,78,53,32,30.09,30.00,29.86,10,10,10,17,4,34,0.00,1,,244
2013-12-18,51,42,33,17,13,4,50,34,15,30.25,30.18,30.04,10,10,10,12,6,18,0.00,0,,273
2013-12-19,62,46,30,25,20,16,61,40,20,30.28,30.22,30.16,10,10,10,12,4,18,0.00,0,,200
2013-12-20,60,48,36,44,35,25,74,58,42,30.20,30.14,30.09,10,10,10,13,4,16,0.00,2,,194
2013-12-21,64,55,46,60,52,42,90,82,74,30.12,30.04,29.95,10,10,6,16,3,22,0.00,7,Rain,198
2013-12-22,68,62,57,63,60,57,100,93,81,30.07,30.01,29.93,10,6,0,17,10,29,1.76,8,Fog-Rain,210
2013-12-23,63,52,41,63,54,30,100,87,63,30.15,30.03,29.96,10,8,2,12,4,,0.81,7,Rain,244
2013-12-24,42,34,25,30,21,12,79,57,36,30.42,30.27,30.14,10,10,10,14,4,22,0.00,1,,332
2013-12-25,37,28,19,17,10,3,74,49,24,30.52,30.42,30.35,10,10,10,7,3,,0.00,0,,3
2013-12-26,53,38,23,25,19,14,81,57,27,30.34,30.30,30.22,10,10,10,7,1,,0.00,0,,356
2013-12-27,51,39,27,25,21,15,81,56,27,30.45,30.38,30.33,10,10,10,6,1,,0.00,0,,305
2013-12-28,50,39,28,39,29,22,93,70,38,30.37,30.28,30.13,10,9,4,7,3,,0.13,3,Rain,321
2013-12-29,59,49,39,45,38,32,96,85,53,30.06,29.86,29.73,10,6,2,17,5,31,0.63,6,Rain,309
2013-12-30,51,43,35,37,35,32,92,72,54,30.09,30.02,29.92,10,10,10,6,2,,0.00,2,,353
2013-12-31,50,42,33,36,21,13,83,49,24,30.34,30.23,30.08,10,10,10,16,4,20,0.00,1,,297